createdAt,value
2019-06-08T00:01:22.814Z,100864.55
2019-06-08T00:03:52.844Z,100847.73
2019-06-08T00:06:23.001Z,100863.81
2019-06-08T00:08:52.700Z,100891.75
2019-06-08T00:11:23.483Z,100875.74
2019-06-08T00:13:53.256Z,100885.22
2019-06-08T00:16:23.804Z,100878.75
2019-06-08T00:18:54.341Z,100864.91
2019-06-08T00:21:24.232Z,100885.53
2019-06-08T00:23:53.843Z,100891.80
2019-06-08T00:26:24.384Z,100911.33
2019-06-08T00:28:54.323Z,100914.19
2019-06-08T00:31:23.964Z,100901.98
2019-06-08T00:33:53.584Z,100900.50
2019-06-08T00:36:23.179Z,100925.44
2019-06-08T00:38:55.885Z,100916.28
2019-06-08T00:41:25.916Z,100894.89
2019-06-08T00:43:55.422Z,100883.95
2019-06-08T00:46:25.674Z,100900.82
2019-06-08T00:48:55.327Z,100877.83
2019-06-08T00:51:25.542Z,100903.73
2019-06-08T00:53:55.256Z,100913.60
2019-06-08T00:56:26.030Z,100900.12
2019-06-08T00:58:55.876Z,100902.24
2019-06-08T01:01:28.006Z,100893.20
2019-06-08T01:03:57.091Z,100883.52
2019-06-08T01:06:27.522Z,100891.98
2019-06-08T01:08:57.172Z,100890.28
2019-06-08T01:11:28.850Z,100867.73
2019-06-08T01:13:58.492Z,100862.19
2019-06-08T01:16:29.260Z,100870.73
2019-06-08T01:18:59.006Z,100886.47
2019-06-08T01:21:29.967Z,100901.42
2019-06-08T01:23:59.697Z,100915.64
2019-06-08T01:26:30.187Z,100907.77
2019-06-08T01:28:59.932Z,100898.95
2019-06-08T01:31:30.506Z,100887.73
2019-06-08T01:34:00.402Z,100870.25
2019-06-08T01:36:31.199Z,100864.37
2019-06-08T01:39:01.080Z,100841.94
2019-06-08T01:41:31.766Z,100856.91
2019-06-08T01:44:01.411Z,100873.81
2019-06-08T01:46:32.422Z,100869.66
2019-06-08T01:49:03.197Z,100877.08
2019-06-08T01:51:32.954Z,100889.07
2019-06-08T01:54:02.944Z,100901.38
2019-06-08T01:56:33.400Z,100880.61
2019-06-08T01:59:03.034Z,100838.39
2019-06-08T02:01:34.013Z,100813.77
2019-06-08T02:04:05.091Z,100858.23
2019-06-08T02:06:34.804Z,100898.92
2019-06-08T02:09:07.249Z,100915.93
2019-06-08T02:11:36.949Z,100929.39
2019-06-08T02:14:06.901Z,100929.42
2019-06-08T02:16:36.984Z,100932.11
2019-06-08T02:19:06.684Z,100939.55
2019-06-08T02:21:37.003Z,100928.94
2019-06-08T02:24:06.763Z,100928.87
2019-06-08T02:26:36.433Z,100938.27
2019-06-08T02:29:06.434Z,100943.20
2019-06-08T02:31:37.696Z,100956.67
2019-06-08T02:34:07.921Z,100948.91
2019-06-08T02:36:38.067Z,100959.08
2019-06-08T02:39:09.100Z,100950.31
2019-06-08T02:41:39.995Z,100947.12
2019-06-08T02:44:09.776Z,100942.95
2019-06-08T02:46:40.436Z,100955.00
2019-06-08T02:49:10.649Z,100940.19
2019-06-08T02:51:41.161Z,100946.41
2019-06-08T02:54:12.416Z,100946.88
2019-06-08T02:56:43.917Z,100940.05
2019-06-08T02:59:15.432Z,100936.33
2019-06-08T03:01:47.118Z,100942.05
2019-06-08T03:04:21.087Z,100949.55
2019-06-08T03:06:51.739Z,100939.70
2019-06-08T03:09:22.848Z,100944.78
2019-06-08T03:11:54.895Z,100943.30
2019-06-08T03:14:27.975Z,100934.12
2019-06-08T03:16:57.504Z,100928.73
2019-06-08T03:19:27.445Z,100941.61
2019-06-08T03:21:57.032Z,100927.47
2019-06-08T03:24:26.561Z,100930.55
2019-06-08T03:26:56.088Z,100889.28
2019-06-08T03:29:25.681Z,100901.38
2019-06-08T03:31:57.093Z,100931.52
2019-06-08T03:34:26.477Z,100929.09
2019-06-08T03:36:57.607Z,100887.94
2019-06-08T03:39:27.341Z,100916.82
2019-06-08T03:41:56.937Z,100916.62
2019-06-08T03:44:26.458Z,100918.37
2019-06-08T03:46:56.296Z,100926.79
2019-06-08T03:49:41.352Z,100920.16
2019-06-08T03:51:58.931Z,100921.47
2019-06-08T03:54:28.491Z,100935.93
2019-06-08T03:56:58.178Z,100923.38
2019-06-08T03:59:27.709Z,100955.97
2019-06-08T04:01:57.213Z,100931.31
2019-06-08T04:04:26.760Z,100941.52
2019-06-08T04:06:56.256Z,100952.15
2019-06-08T04:09:25.812Z,100941.28
2019-06-08T04:11:55.421Z,100942.84
2019-06-08T04:14:24.928Z,100949.74
2019-06-08T04:16:54.809Z,100967.71
2019-06-08T04:19:24.648Z,100974.02
2019-06-08T04:21:54.158Z,100988.79
2019-06-08T04:24:23.763Z,100988.23
2019-06-08T04:26:53.381Z,100976.33
2019-06-08T04:29:22.869Z,100987.81
2019-06-08T04:31:52.857Z,100990.61
2019-06-08T04:34:22.466Z,101001.02
2019-06-08T04:36:52.060Z,101013.72
2019-06-08T04:39:21.563Z,101021.92
2019-06-08T04:41:51.291Z,101032.26
2019-06-08T04:44:20.869Z,101019.07
2019-06-08T04:46:50.398Z,101016.91
2019-06-08T04:49:19.953Z,101013.33
2019-06-08T04:51:49.698Z,101014.30
2019-06-08T04:54:19.305Z,101009.54
2019-06-08T04:56:49.564Z,101003.83
2019-06-08T04:59:19.623Z,101021.72
2019-06-08T05:01:49.431Z,101024.52
2019-06-08T05:04:19.252Z,101014.69
2019-06-08T05:06:49.561Z,101019.40
2019-06-08T05:09:19.311Z,101015.08
2019-06-08T05:11:49.800Z,101022.63
2019-06-08T05:14:19.730Z,101033.89
2019-06-08T05:16:49.784Z,101031.94
2019-06-08T05:19:19.437Z,101041.63
2019-06-08T05:21:49.939Z,101062.34
2019-06-08T05:24:20.102Z,101068.72
2019-06-08T05:26:49.954Z,101085.97
2019-06-08T05:29:19.533Z,101083.50
2019-06-08T05:31:49.767Z,101075.82
2019-06-08T05:34:19.578Z,101089.04
2019-06-08T05:36:50.065Z,101066.76
2019-06-08T05:39:19.707Z,101050.33
2019-06-08T05:41:49.879Z,101042.62
2019-06-08T05:44:19.715Z,101041.68
2019-06-08T05:46:50.040Z,101030.53
2019-06-08T05:49:19.722Z,101033.87
2019-06-08T05:51:50.046Z,101063.48
2019-06-08T05:54:19.799Z,101078.16
2019-06-08T05:56:50.432Z,101087.14
2019-06-08T05:59:20.045Z,101096.70
2019-06-08T06:01:50.988Z,101102.57
2019-06-08T06:04:20.918Z,101112.55
2019-06-08T06:06:50.914Z,101099.25
2019-06-08T06:09:20.788Z,101095.15
2019-06-08T06:11:51.163Z,101104.05
2019-06-08T06:14:20.857Z,101084.89
2019-06-08T06:16:51.356Z,101084.17
2019-06-08T06:19:20.933Z,101092.86
2019-06-08T06:21:51.508Z,101079.20
2019-06-08T06:24:21.389Z,101085.30
2019-06-08T06:26:51.704Z,101078.61
2019-06-08T06:29:21.409Z,101095.64
2019-06-08T06:31:52.074Z,101095.57
2019-06-08T06:34:21.732Z,101096.55
2019-06-08T06:36:52.167Z,101097.52
2019-06-08T06:39:21.765Z,101090.66
2019-06-08T06:41:52.150Z,101092.99
2019-06-08T06:44:21.804Z,101106.98
2019-06-08T06:46:52.403Z,101140.97
2019-06-08T06:49:23.250Z,101134.02
2019-06-08T06:51:52.827Z,101134.46
2019-06-08T06:54:22.347Z,101118.36
2019-06-08T06:56:51.984Z,101117.44
2019-06-08T06:59:21.620Z,101113.38
2019-06-08T07:01:54.169Z,101113.36
2019-06-08T07:04:22.609Z,101138.59
2019-06-08T07:06:52.314Z,101124.50
2019-06-08T07:09:22.795Z,101113.88
2019-06-08T07:11:56.263Z,101126.55
2019-06-08T07:14:25.795Z,101119.47
2019-06-08T07:16:56.129Z,101126.20
2019-06-08T07:19:25.724Z,101131.36
2019-06-08T07:21:55.235Z,101137.66
2019-06-08T07:24:24.746Z,101146.36
2019-06-08T07:26:54.625Z,101141.20
2019-06-08T07:29:24.139Z,101130.84
2019-06-08T07:31:55.131Z,101153.81
2019-06-08T07:34:25.191Z,101155.19
2019-06-08T07:36:55.555Z,101180.74
2019-06-08T07:39:25.167Z,101156.84
2019-06-08T07:41:55.869Z,101166.98
2019-06-08T07:44:25.500Z,101172.09
2019-06-08T07:46:55.808Z,101166.77
2019-06-08T07:49:25.597Z,101168.21
2019-06-08T07:52:02.451Z,101178.28
2019-06-08T07:54:26.362Z,101164.27
2019-06-08T07:56:57.060Z,101173.14
2019-06-08T07:59:26.668Z,101165.91
2019-06-08T08:01:58.367Z,101171.73
2019-06-08T08:04:28.104Z,101170.91
2019-06-08T08:06:58.798Z,101163.20
2019-06-08T08:09:28.447Z,101167.10
2019-06-08T08:11:59.710Z,101160.77
2019-06-08T08:14:29.564Z,101172.34
2019-06-08T08:16:59.214Z,101167.16
2019-06-08T08:19:28.819Z,101170.76
2019-06-08T08:22:10.716Z,101172.56
2019-06-08T08:24:31.457Z,101180.42
2019-06-08T08:27:03.627Z,101169.37
2019-06-08T08:29:32.566Z,101186.64
2019-06-08T08:32:02.191Z,101180.80
2019-06-08T08:34:31.798Z,101187.13
2019-06-08T08:37:05.496Z,101184.94
2019-06-08T08:39:33.042Z,101169.61
2019-06-08T08:42:05.139Z,101182.69
2019-06-08T08:44:34.171Z,101187.90
2019-06-08T08:47:03.714Z,101186.56
2019-06-08T08:49:33.309Z,101194.51
2019-06-08T08:52:02.893Z,101198.38
2019-06-08T08:54:32.455Z,101195.41
2019-06-08T08:57:05.125Z,101199.87
2019-06-08T08:59:33.336Z,101198.47
2019-06-08T09:02:03.157Z,101216.66
2019-06-08T09:04:32.967Z,101215.78
2019-06-08T09:07:06.796Z,101218.98
2019-06-08T09:09:33.842Z,101219.32
2019-06-08T09:12:04.575Z,101227.55
2019-06-08T09:14:34.294Z,101238.11
2019-06-08T09:17:04.054Z,101232.73
2019-06-08T09:19:34.944Z,101242.23
2019-06-08T09:22:04.911Z,101258.10
2019-06-08T09:24:34.746Z,101261.27
2019-06-08T09:27:04.629Z,101253.24
2019-06-08T09:29:34.170Z,101259.05
2019-06-08T09:32:03.998Z,101261.78
2019-06-08T09:34:33.671Z,101263.16
2019-06-08T09:37:04.983Z,101258.31
2019-06-08T09:39:34.410Z,101258.21
2019-06-08T09:42:05.126Z,101266.03
2019-06-08T09:44:34.721Z,101257.13
2019-06-08T09:47:09.461Z,101263.95
2019-06-08T09:49:37.709Z,101258.78
2019-06-08T09:52:08.551Z,101268.66
2019-06-08T09:54:38.642Z,101265.53
2019-06-08T09:57:09.062Z,101273.26
2019-06-08T09:59:39.352Z,101283.02
2019-06-08T10:02:12.673Z,101279.77
2019-06-08T10:04:40.815Z,101287.07
2019-06-08T10:07:10.372Z,101295.00
2019-06-08T10:09:43.120Z,101287.28
2019-06-08T10:12:11.472Z,101296.27
2019-06-08T10:14:41.286Z,101299.41
2019-06-08T10:17:10.948Z,101303.25
2019-06-08T10:19:40.556Z,101302.12
2019-06-08T10:22:10.136Z,101313.73
2019-06-08T10:24:41.524Z,101305.68
2019-06-08T10:27:13.181Z,101303.55
2019-06-08T10:29:42.708Z,101304.48
2019-06-08T10:32:13.947Z,101293.63
2019-06-08T10:34:43.569Z,101310.02
2019-06-08T10:37:13.749Z,101306.97
2019-06-08T10:39:43.442Z,101310.52
2019-06-08T10:42:13.174Z,101317.44
2019-06-08T10:44:42.808Z,101320.07
2019-06-08T10:47:12.525Z,101327.97
2019-06-08T10:49:49.065Z,101319.34
2019-06-08T10:52:25.157Z,101322.82
2019-06-08T10:54:55.092Z,101333.06
2019-06-08T10:57:24.767Z,101332.12
2019-06-08T10:59:54.420Z,101336.95
2019-06-08T11:02:24.083Z,101342.94
2019-06-08T11:04:53.811Z,101336.58
2019-06-08T11:07:23.491Z,101348.20
2019-06-08T11:09:53.556Z,101350.30
2019-06-08T11:12:23.269Z,101352.09
2019-06-08T11:14:52.929Z,101356.78
2019-06-08T11:17:22.521Z,101361.30
2019-06-08T11:19:52.085Z,101367.27
2019-06-08T11:22:21.658Z,101375.59
2019-06-08T11:24:51.241Z,101359.63
2019-06-08T11:27:20.753Z,101376.05
2019-06-08T11:29:50.607Z,101370.13
2019-06-08T11:32:20.523Z,101382.66
2019-06-08T11:34:50.037Z,101381.66
2019-06-08T11:37:21.091Z,101385.34
2019-06-08T11:39:50.828Z,101392.05
2019-06-08T11:42:20.323Z,101387.71
2019-06-08T11:44:51.199Z,101385.81
2019-06-08T11:47:21.126Z,101399.01
2019-06-08T11:49:50.828Z,101390.20
2019-06-08T11:52:20.402Z,101396.22
2019-06-08T11:54:50.474Z,101402.58
2019-06-08T11:57:20.701Z,101406.69
2019-06-08T11:59:52.140Z,101393.97
2019-06-08T12:02:21.830Z,101395.73
2019-06-08T12:04:51.388Z,101405.59
2019-06-08T12:07:20.900Z,101405.41
2019-06-08T12:09:50.526Z,101406.90
2019-06-08T12:12:21.451Z,101411.73
2019-06-08T12:14:51.526Z,101406.68
2019-06-08T12:17:22.660Z,101412.91
2019-06-08T12:19:52.461Z,101413.11
2019-06-08T12:22:22.030Z,101409.66
2019-06-08T12:24:51.626Z,101413.58
2019-06-08T12:27:29.749Z,101417.72
2019-06-08T12:29:52.389Z,101424.48
2019-06-08T12:32:22.163Z,101408.66
2019-06-08T12:34:51.666Z,101412.31
2019-06-08T12:37:22.302Z,101408.78
2019-06-08T12:39:53.569Z,101410.59
2019-06-08T12:42:25.030Z,101407.12
2019-06-08T12:44:54.437Z,101413.20
2019-06-08T12:47:26.694Z,101413.11
2019-06-08T12:49:55.187Z,101420.59
2019-06-08T12:52:24.753Z,101400.48
2019-06-08T12:55:05.547Z,101407.31
2019-06-08T12:57:25.698Z,101404.94
2019-06-08T12:59:59.682Z,101420.05
2019-06-08T13:02:28.196Z,101411.20
2019-06-08T13:04:58.705Z,101422.22
2019-06-08T13:07:28.239Z,101410.09
2019-06-08T13:09:58.794Z,101423.10
2019-06-08T13:12:28.369Z,101416.92
2019-06-08T13:14:58.395Z,101429.27
2019-06-08T13:17:28.127Z,101413.86
2019-06-08T13:19:58.182Z,101427.95
2019-06-08T13:22:31.202Z,101420.71
2019-06-08T13:25:14.634Z,101409.61
2019-06-08T13:27:30.231Z,101411.64
2019-06-08T13:29:59.745Z,101414.77
2019-06-08T13:32:29.685Z,101428.69
2019-06-08T13:34:59.537Z,101410.49
2019-06-08T13:37:29.136Z,101428.77
2019-06-08T13:39:59.309Z,101425.70
2019-06-08T13:42:28.947Z,101421.17
2019-06-08T13:44:58.709Z,101410.45
2019-06-08T13:47:28.378Z,101433.23
2019-06-08T13:49:57.921Z,101436.08
2019-06-08T13:52:28.178Z,101433.00
2019-06-08T13:54:58.393Z,101455.72
2019-06-08T13:57:28.095Z,101446.24
2019-06-08T13:59:57.903Z,101436.84
2019-06-08T14:02:30.987Z,101447.52
2019-06-08T14:04:59.250Z,101436.89
2019-06-08T14:07:34.414Z,101461.41
2019-06-08T14:10:02.677Z,101445.75
2019-06-08T14:12:32.283Z,101466.14
2019-06-08T14:15:01.784Z,101444.97
2019-06-08T14:17:31.480Z,101448.69
2019-06-08T14:20:01.064Z,101446.50
2019-06-08T14:22:30.578Z,101443.05
2019-06-08T14:25:00.493Z,101449.13
2019-06-08T14:27:33.024Z,101463.36
2019-06-08T14:30:01.480Z,101456.91
2019-06-08T14:32:31.427Z,101462.06
2019-06-08T14:35:02.898Z,101468.13
2019-06-08T14:37:32.423Z,101456.84
2019-06-08T14:40:02.056Z,101470.52
2019-06-08T14:42:31.877Z,101473.50
2019-06-08T14:45:01.474Z,101454.33
2019-06-08T14:47:31.005Z,101475.11
2019-06-08T14:50:01.815Z,101459.88
2019-06-08T14:52:31.624Z,101468.95
2019-06-08T14:55:01.837Z,101474.19
2019-06-08T14:57:31.458Z,101456.91
2019-06-08T15:00:08.369Z,101491.42
2019-06-08T15:02:32.296Z,101479.05
2019-06-08T15:05:01.850Z,101479.09
2019-06-08T15:07:32.796Z,101492.44
2019-06-08T15:10:09.786Z,101495.06
2019-06-08T15:12:38.511Z,101477.80
2019-06-08T15:15:11.424Z,101490.36
2019-06-08T15:17:39.782Z,101483.19
2019-06-08T15:20:10.618Z,101490.55
2019-06-08T15:22:40.206Z,101482.20
2019-06-08T15:25:11.758Z,101475.55
2019-06-08T15:27:41.246Z,101479.38
2019-06-08T15:30:12.048Z,101485.01
2019-06-08T15:32:41.610Z,101490.69
2019-06-08T15:35:11.260Z,101495.05
2019-06-08T15:37:41.030Z,101487.81
2019-06-08T15:40:12.170Z,101483.03
2019-06-08T15:42:42.019Z,101484.27
2019-06-08T15:45:11.728Z,101485.08
2019-06-08T15:47:41.268Z,101488.92
2019-06-08T15:50:11.191Z,101491.53
2019-06-08T15:52:40.670Z,101493.81
2019-06-08T15:55:11.350Z,101494.84
2019-06-08T15:57:41.494Z,101482.66
2019-06-08T16:00:11.735Z,101491.05
2019-06-08T16:02:42.227Z,101500.28
2019-06-08T16:05:12.000Z,101491.11
2019-06-08T16:07:41.629Z,101511.42
2019-06-08T16:10:11.550Z,101498.73
2019-06-08T16:12:41.140Z,101502.93
2019-06-08T16:15:11.347Z,101498.08
2019-06-08T16:17:40.962Z,101496.88
2019-06-08T16:20:10.615Z,101501.78
2019-06-08T16:22:40.220Z,101496.74
2019-06-08T16:25:10.285Z,101509.34
2019-06-08T16:27:39.873Z,101502.31
2019-06-08T16:30:10.063Z,101506.09
2019-06-08T16:32:39.903Z,101496.83
2019-06-08T16:35:10.232Z,101497.70
2019-06-08T16:37:39.947Z,101497.00
2019-06-08T16:40:10.682Z,101487.85
2019-06-08T16:42:42.061Z,101501.95
2019-06-08T16:45:11.934Z,101504.63
2019-06-08T16:47:43.724Z,101507.09
2019-06-08T16:50:23.978Z,101499.01
2019-06-08T16:52:46.641Z,101489.64
2019-06-08T16:55:16.308Z,101495.82
2019-06-08T16:57:45.820Z,101504.06
2019-06-08T17:00:30.336Z,101491.02
2019-06-08T17:02:47.298Z,101492.59
2019-06-08T17:05:16.952Z,101503.27
2019-06-08T17:07:47.473Z,101497.53
2019-06-08T17:10:17.042Z,101513.81
2019-06-08T17:12:46.541Z,101509.48
2019-06-08T17:15:16.596Z,101517.38
2019-06-08T17:17:46.091Z,101519.62
2019-06-08T17:20:16.877Z,101517.24
2019-06-08T17:22:46.489Z,101528.09
2019-06-08T17:25:17.599Z,101519.02
2019-06-08T17:27:47.187Z,101525.06
2019-06-08T17:30:17.433Z,101531.31
2019-06-08T17:32:46.912Z,101524.47
2019-06-08T17:35:16.635Z,101523.86
2019-06-08T17:37:46.176Z,101536.44
2019-06-08T17:40:16.288Z,101536.36
2019-06-08T17:42:45.866Z,101534.80
2019-06-08T17:45:15.579Z,101537.49
2019-06-08T17:47:45.088Z,101528.55
2019-06-08T17:50:14.944Z,101534.84
2019-06-08T17:52:44.856Z,101545.83
2019-06-08T17:55:14.507Z,101539.91
2019-06-08T17:57:53.002Z,101534.53
2019-06-08T18:00:16.504Z,101536.82
2019-06-08T18:02:48.214Z,101540.04
2019-06-08T18:05:18.347Z,101536.87
2019-06-08T18:07:48.978Z,101543.22
2019-06-08T18:10:19.031Z,101544.05
2019-06-08T18:12:49.445Z,101523.80
2019-06-08T18:15:19.159Z,101531.99
2019-06-08T18:17:48.733Z,101539.29
2019-06-08T18:20:18.432Z,101543.08
2019-06-08T18:22:49.392Z,101553.56
2019-06-08T18:25:19.368Z,101542.55
2019-06-08T18:28:05.554Z,101538.31
2019-06-08T18:30:22.905Z,101552.70
2019-06-08T18:32:52.429Z,101552.40
2019-06-08T18:35:22.337Z,101560.52
2019-06-08T18:37:53.555Z,101559.16
2019-06-08T18:40:23.201Z,101567.08
2019-06-08T18:42:52.928Z,101572.95
2019-06-08T18:45:22.903Z,101579.16
2019-06-08T18:47:53.440Z,101570.88
2019-06-08T18:50:22.951Z,101575.52
2019-06-08T18:52:53.685Z,101575.98
2019-06-08T18:55:23.346Z,101583.14
2019-06-08T18:57:52.845Z,101579.39
2019-06-08T19:00:41.373Z,101585.68
2019-06-08T19:03:09.570Z,101582.83
2019-06-08T19:05:42.579Z,101586.67
2019-06-08T19:08:12.743Z,101598.09
2019-06-08T19:10:42.769Z,101593.94
2019-06-08T19:13:13.536Z,101600.47
2019-06-08T19:15:46.458Z,101595.51
2019-06-08T19:18:14.605Z,101600.98
2019-06-08T19:20:47.223Z,101603.73
2019-06-08T19:23:21.042Z,101613.06
2019-06-08T19:25:49.599Z,101612.48
2019-06-08T19:28:34.918Z,101610.69
2019-06-08T19:30:51.598Z,101621.25
2019-06-08T19:33:21.352Z,101621.59
2019-06-08T19:35:53.753Z,101619.58
2019-06-08T19:38:22.408Z,101628.87
2019-06-08T19:40:51.917Z,101638.04
2019-06-08T19:43:21.419Z,101629.44
2019-06-08T19:45:52.105Z,101632.66
2019-06-08T19:48:21.773Z,101635.34
2019-06-08T19:50:54.295Z,101643.77
2019-06-08T19:53:22.942Z,101648.11
2019-06-08T19:55:54.080Z,101655.99
2019-06-08T19:58:23.944Z,101652.47
2019-06-08T20:00:54.970Z,101656.14
2019-06-08T20:03:24.656Z,101663.14
2019-06-08T20:05:55.976Z,101655.50
2019-06-08T20:08:25.480Z,101665.58
2019-06-08T20:10:57.414Z,101665.42
2019-06-08T20:13:26.917Z,101656.14
2019-06-08T20:15:59.639Z,101667.13
2019-06-08T20:18:28.041Z,101675.17
2019-06-08T20:20:58.598Z,101673.54
2019-06-08T20:23:28.324Z,101678.14
2019-06-08T20:26:00.636Z,101672.77
2019-06-08T20:28:29.372Z,101680.66
2019-06-08T20:30:59.453Z,101686.50
2019-06-08T20:33:29.010Z,101677.19
2019-06-08T20:35:58.685Z,101686.61
2019-06-08T20:38:37.251Z,101683.27
2019-06-08T20:40:59.466Z,101693.77
2019-06-08T20:43:29.010Z,101692.27
2019-06-08T20:45:58.509Z,101698.37
2019-06-08T20:48:28.224Z,101701.92
2019-06-08T20:50:57.885Z,101711.57
2019-06-08T20:53:28.331Z,101710.42
2019-06-08T20:55:58.000Z,101713.39
2019-06-08T20:58:28.365Z,101709.47
2019-06-08T21:00:58.005Z,101719.68
2019-06-08T21:03:28.128Z,101717.97
2019-06-08T21:05:58.206Z,101722.17
2019-06-08T21:08:28.295Z,101728.66
2019-06-08T21:10:58.725Z,101729.27
2019-06-08T21:13:28.526Z,101743.07
2019-06-08T21:16:00.725Z,101741.87
2019-06-08T21:18:29.425Z,101745.14
2019-06-08T21:20:58.960Z,101748.84
2019-06-08T21:23:31.869Z,101761.77
2019-06-08T21:26:00.236Z,101762.69
2019-06-08T21:28:30.228Z,101762.09
2019-06-08T21:31:02.022Z,101762.39
2019-06-08T21:33:30.981Z,101762.42
2019-06-08T21:36:04.847Z,101782.86
2019-06-08T21:38:31.882Z,101776.59
2019-06-08T21:41:02.879Z,101780.94
2019-06-08T21:43:32.966Z,101774.72
2019-06-08T21:46:02.474Z,101777.85
2019-06-08T21:48:32.018Z,101777.52
2019-06-08T21:51:01.794Z,101783.06
2019-06-08T21:53:31.456Z,101786.68
2019-06-08T21:56:01.044Z,101786.95
2019-06-08T21:58:30.564Z,101781.66
2019-06-08T22:01:01.124Z,101773.16
2019-06-08T22:03:30.938Z,101771.34
2019-06-08T22:06:02.374Z,101786.70
2019-06-08T22:08:31.889Z,101785.64
2019-06-08T22:11:02.558Z,101785.46
2019-06-08T22:13:32.237Z,101785.45
2019-06-08T22:16:04.008Z,101792.48
2019-06-08T22:18:33.088Z,101789.36
2019-06-08T22:21:03.646Z,101795.43
2019-06-08T22:23:33.186Z,101797.16
2019-06-08T22:26:03.637Z,101797.50
2019-06-08T22:28:37.584Z,101798.06
2019-06-08T22:31:07.914Z,101808.16
2019-06-08T22:33:38.058Z,101807.18
2019-06-08T22:36:09.144Z,101812.66
2019-06-08T22:38:38.942Z,101804.16
2019-06-08T22:41:09.604Z,101809.04
2019-06-08T22:43:39.112Z,101812.84
2019-06-08T22:46:08.614Z,101818.91
2019-06-08T22:48:38.534Z,101822.56
2019-06-08T22:51:08.268Z,101821.66
2019-06-08T22:53:38.545Z,101823.27
2019-06-08T22:56:08.228Z,101823.56
2019-06-08T22:58:38.575Z,101827.89
2019-06-08T23:01:11.405Z,101827.09
2019-06-08T23:03:39.544Z,101827.52
2019-06-08T23:06:09.064Z,101825.96
2019-06-08T23:08:38.628Z,101820.97
2019-06-08T23:11:08.691Z,101828.16
2019-06-08T23:13:38.247Z,101828.73
2019-06-08T23:16:08.913Z,101831.04
2019-06-08T23:18:38.678Z,101822.09
2019-06-08T23:21:09.059Z,101828.61
2019-06-08T23:23:38.694Z,101822.16
2019-06-08T23:26:10.409Z,101820.77
2019-06-08T23:28:40.251Z,101831.02
2019-06-08T23:31:21.152Z,101825.23
2019-06-08T23:33:41.390Z,101827.13
2019-06-08T23:38:42.372Z,101824.05
2019-06-08T23:41:13.043Z,101826.97
2019-06-08T23:43:42.567Z,101830.99
2019-06-08T23:46:12.116Z,101822.00
2019-06-08T23:48:41.640Z,101821.47
2019-06-08T23:51:11.165Z,101819.11
2019-06-08T23:53:41.594Z,101823.91
2019-06-08T23:56:12.030Z,101818.58
2019-06-08T23:58:41.709Z,101824.92
